createdAt,value
2023-03-31T00:00:48.167Z,15.90
2023-03-31T00:01:48.289Z,17.40
2023-03-31T00:02:48.249Z,16.00
2023-03-31T00:03:48.260Z,15.70
2023-03-31T00:04:48.176Z,15.50
2023-03-31T00:05:48.238Z,15.90
2023-03-31T00:06:48.116Z,15.20
2023-03-31T00:07:48.143Z,16.70
2023-03-31T00:08:48.135Z,16.50
2023-03-31T00:09:48.089Z,17.80
2023-03-31T00:10:48.073Z,15.80
2023-03-31T00:11:48.096Z,16.20
2023-03-31T00:12:48.104Z,12.90
2023-03-31T00:13:48.079Z,19.60
2023-03-31T00:14:48.077Z,13.90
2023-03-31T00:15:48.076Z,15.10
2023-03-31T00:16:48.132Z,17.80
2023-03-31T00:17:48.082Z,15.40
2023-03-31T00:18:48.085Z,16.60
2023-03-31T00:19:48.042Z,13.40
2023-03-31T00:20:48.034Z,15.90
2023-03-31T00:21:48.018Z,16.20
2023-03-31T00:22:47.993Z,9.60
2023-03-31T00:23:47.980Z,14.30
2023-03-31T00:24:48.114Z,15.20
2023-03-31T00:25:47.964Z,15.90
2023-03-31T00:26:47.981Z,14.10
2023-03-31T00:27:47.968Z,15.80
2023-03-31T00:28:47.937Z,11.90
2023-03-31T00:29:47.956Z,13.40
2023-03-31T00:30:47.994Z,15.50
2023-03-31T00:31:47.987Z,15.80
2023-03-31T00:32:47.979Z,13.40
2023-03-31T00:33:47.941Z,13.30
2023-03-31T00:34:47.911Z,18.60
2023-03-31T00:35:47.930Z,16.20
2023-03-31T00:36:48.030Z,17.20
2023-03-31T00:37:47.892Z,17.10
2023-03-31T00:38:47.905Z,19.20
2023-03-31T00:39:47.886Z,17.00
2023-03-31T00:40:47.870Z,14.90
2023-03-31T00:41:47.848Z,15.10
2023-03-31T00:42:47.885Z,12.50
2023-03-31T00:43:47.831Z,15.40
2023-03-31T00:44:47.858Z,15.10
2023-03-31T00:45:48.840Z,19.70
2023-03-31T00:46:47.829Z,18.60
2023-03-31T00:47:47.910Z,14.30
2023-03-31T00:48:47.788Z,16.20
2023-03-31T00:49:47.797Z,14.60
2023-03-31T00:50:47.796Z,14.50
2023-03-31T00:51:47.832Z,14.00
2023-03-31T00:52:47.757Z,15.40
2023-03-31T00:53:47.777Z,12.60
2023-03-31T00:54:47.757Z,14.60
2023-03-31T00:55:47.761Z,11.30
2023-03-31T00:56:48.777Z,17.30
2023-03-31T00:57:47.714Z,15.60
2023-03-31T00:58:47.739Z,14.30
2023-03-31T00:59:47.743Z,10.10
2023-03-31T01:00:47.697Z,8.90
2023-03-31T01:01:47.736Z,12.00
2023-03-31T01:02:47.733Z,16.00
2023-03-31T01:03:47.692Z,10.00
2023-03-31T01:04:47.681Z,12.00
2023-03-31T01:05:47.653Z,11.40
2023-03-31T01:06:47.662Z,7.90
2023-03-31T01:07:47.733Z,8.70
2023-03-31T01:08:47.687Z,9.60
2023-03-31T01:09:47.687Z,8.10
2023-03-31T01:10:47.673Z,8.70
2023-03-31T01:11:47.628Z,12.30
2023-03-31T01:12:47.617Z,10.40
2023-03-31T01:13:47.603Z,11.10
2023-03-31T01:14:47.612Z,10.60
2023-03-31T01:15:47.598Z,8.30
2023-03-31T01:16:47.651Z,10.10
2023-03-31T01:17:47.758Z,7.50
2023-03-31T01:18:47.594Z,7.00
2023-03-31T01:19:47.592Z,9.00
2023-03-31T01:20:47.534Z,8.30
2023-03-31T01:21:47.573Z,6.30
2023-03-31T01:22:47.545Z,9.20
2023-03-31T01:23:47.556Z,7.90
2023-03-31T01:24:47.523Z,9.20
2023-03-31T01:25:47.518Z,8.50
2023-03-31T01:26:47.489Z,9.90
2023-03-31T01:27:47.500Z,10.30
2023-03-31T01:28:47.479Z,8.60
2023-03-31T01:29:47.481Z,7.00
2023-03-31T01:30:47.486Z,6.50
2023-03-31T01:31:47.534Z,7.00
2023-03-31T01:32:47.511Z,9.00
2023-03-31T01:33:47.475Z,10.10
2023-03-31T01:34:47.450Z,7.00
2023-03-31T01:35:47.520Z,9.70
2023-03-31T01:36:48.247Z,7.80
2023-03-31T01:37:47.418Z,6.70
2023-03-31T01:38:47.433Z,6.80
2023-03-31T01:39:47.413Z,7.40
2023-03-31T01:40:47.441Z,10.00
2023-03-31T01:41:47.387Z,8.30
2023-03-31T01:42:47.368Z,9.60
2023-03-31T01:43:47.385Z,8.50
2023-03-31T01:44:47.369Z,6.10
2023-03-31T01:45:47.373Z,6.30
2023-03-31T01:46:47.416Z,7.20
2023-03-31T01:47:47.436Z,9.40
2023-03-31T01:48:47.328Z,7.00
2023-03-31T01:49:47.317Z,8.90
2023-03-31T01:50:48.263Z,7.90
2023-03-31T01:51:47.362Z,5.10
2023-03-31T01:52:47.315Z,6.40
2023-03-31T01:53:47.306Z,7.40
2023-03-31T01:54:47.287Z,8.40
2023-03-31T01:55:47.374Z,5.80
2023-03-31T01:56:47.333Z,6.80
2023-03-31T01:57:47.312Z,4.80
2023-03-31T01:58:47.247Z,6.60
2023-03-31T01:59:47.265Z,8.10
2023-03-31T02:00:47.233Z,5.80
2023-03-31T02:01:47.270Z,9.00
2023-03-31T02:02:47.319Z,5.40
2023-03-31T02:04:19.698Z,6.00
2023-03-31T02:04:47.220Z,8.50
2023-03-31T02:05:48.179Z,10.10
2023-03-31T02:07:19.717Z,5.10
2023-03-31T02:08:19.177Z,7.90
2023-03-31T02:09:19.783Z,4.70
2023-03-31T02:10:19.123Z,8.20
2023-03-31T02:11:19.830Z,7.80
2023-03-31T02:11:47.892Z,11.10
2023-03-31T02:12:47.180Z,4.40
2023-03-31T02:13:47.125Z,7.70
2023-03-31T02:14:47.162Z,9.80
2023-03-31T02:15:47.162Z,9.70
2023-03-31T02:16:47.222Z,6.20
2023-03-31T02:17:47.180Z,6.00
2023-03-31T02:18:47.126Z,5.40
2023-03-31T02:19:47.091Z,5.40
2023-03-31T02:20:47.131Z,6.30
2023-03-31T02:21:47.074Z,5.60
2023-03-31T02:22:47.073Z,4.50
2023-03-31T02:23:47.065Z,3.60
2023-03-31T02:24:47.057Z,4.70
2023-03-31T02:25:47.103Z,6.30
2023-03-31T02:26:47.086Z,8.20
2023-03-31T02:27:47.067Z,7.60
2023-03-31T02:28:47.054Z,4.90
2023-03-31T02:29:47.050Z,6.60
2023-03-31T02:30:47.021Z,4.20
2023-03-31T02:31:47.036Z,5.80
2023-03-31T02:32:47.134Z,6.30
2023-03-31T02:33:46.982Z,4.40
2023-03-31T02:34:47.006Z,8.60
2023-03-31T02:35:47.051Z,5.40
2023-03-31T02:36:46.957Z,6.70
2023-03-31T02:37:46.955Z,8.50
2023-03-31T02:38:47.891Z,6.00
2023-03-31T02:39:46.947Z,8.10
2023-03-31T02:40:46.959Z,5.30
2023-03-31T02:41:46.970Z,6.30
2023-03-31T02:42:46.923Z,4.70
2023-03-31T02:43:46.905Z,6.40
2023-03-31T02:44:46.907Z,7.70
2023-03-31T02:45:46.950Z,7.00
2023-03-31T02:46:47.007Z,5.10
2023-03-31T02:47:46.902Z,6.30
2023-03-31T02:48:46.877Z,5.40
2023-03-31T02:49:47.815Z,8.10
2023-03-31T02:50:46.887Z,8.80
2023-03-31T02:51:46.885Z,8.00
2023-03-31T02:52:46.867Z,7.10
2023-03-31T02:53:46.901Z,5.10
2023-03-31T02:54:46.833Z,11.10
2023-03-31T02:55:46.837Z,9.80
2023-03-31T02:56:46.858Z,10.30
2023-03-31T02:57:46.801Z,12.30
2023-03-31T02:58:46.805Z,5.90
2023-03-31T02:59:46.792Z,7.40
2023-03-31T03:00:46.776Z,11.10
2023-03-31T03:01:46.850Z,9.00
2023-03-31T03:02:46.850Z,10.30
2023-03-31T03:03:46.758Z,9.00
2023-03-31T03:04:46.844Z,7.50
2023-03-31T03:05:46.738Z,7.40
2023-03-31T03:06:46.750Z,9.90
2023-03-31T03:07:46.761Z,8.10
2023-03-31T03:08:46.745Z,9.90
2023-03-31T03:09:46.727Z,10.10
2023-03-31T03:10:46.716Z,9.80
2023-03-31T03:11:47.788Z,9.20
2023-03-31T03:12:47.259Z,7.10
2023-03-31T03:13:46.698Z,9.90
2023-03-31T03:14:46.716Z,8.20
2023-03-31T03:15:46.673Z,9.00
2023-03-31T03:16:46.709Z,8.20
2023-03-31T03:17:46.749Z,9.50
2023-03-31T03:18:46.654Z,9.50
2023-03-31T03:19:46.638Z,8.60
2023-03-31T03:20:46.634Z,7.80
2023-03-31T03:21:46.627Z,11.50
2023-03-31T03:22:46.630Z,6.60
2023-03-31T03:23:46.605Z,7.50
2023-03-31T03:24:46.628Z,6.50
2023-03-31T03:25:46.625Z,6.50
2023-03-31T03:26:46.592Z,9.90
2023-03-31T03:27:46.644Z,8.40
2023-03-31T03:28:46.609Z,9.30
2023-03-31T03:29:46.560Z,6.50
2023-03-31T03:30:46.583Z,11.00
2023-03-31T03:31:46.671Z,8.60
2023-03-31T03:32:46.633Z,8.50
2023-03-31T03:33:46.572Z,6.50
2023-03-31T03:34:46.546Z,12.00
2023-03-31T03:35:46.593Z,12.10
2023-03-31T03:36:46.506Z,8.20
2023-03-31T03:37:46.505Z,7.80
2023-03-31T03:38:46.509Z,9.70
2023-03-31T03:39:46.524Z,9.00
2023-03-31T03:40:48.283Z,7.00
2023-03-31T03:41:46.474Z,8.90
2023-03-31T03:42:46.490Z,7.40
2023-03-31T03:43:46.463Z,7.90
2023-03-31T03:44:46.485Z,6.80
2023-03-31T03:45:46.439Z,8.80
2023-03-31T03:46:46.520Z,7.50
2023-03-31T04:03:01.648Z,5.60
2023-03-31T04:04:01.587Z,9.10
2023-03-31T04:05:01.648Z,8.80
2023-03-31T04:06:02.718Z,8.30
2023-03-31T04:07:02.725Z,11.80
2023-03-31T04:08:02.727Z,11.10
2023-03-31T04:09:02.752Z,10.40
2023-03-31T04:10:02.717Z,12.50
2023-03-31T04:11:02.697Z,8.60
2023-03-31T04:12:03.360Z,8.00
2023-03-31T04:13:03.405Z,9.50
2023-03-31T04:14:02.671Z,7.40
2023-03-31T04:15:37.237Z,11.90
2023-03-31T04:16:02.690Z,15.70
2023-03-31T04:17:02.643Z,11.00
2023-03-31T04:18:02.680Z,10.60
2023-03-31T04:19:02.622Z,10.50
2023-03-31T04:20:02.610Z,8.40
2023-03-31T04:21:03.331Z,9.60
2023-03-31T04:22:02.654Z,8.60
2023-03-31T04:23:02.616Z,9.60
2023-03-31T04:24:02.621Z,9.80
2023-03-31T04:25:02.596Z,11.50
2023-03-31T04:26:02.626Z,11.60
2023-03-31T04:27:02.562Z,11.60
2023-03-31T04:28:02.541Z,9.40
2023-03-31T04:29:02.549Z,10.60
2023-03-31T04:30:02.548Z,10.90
2023-03-31T04:31:02.534Z,12.90
2023-03-31T04:32:02.576Z,10.40
2023-03-31T04:33:02.547Z,10.60
2023-03-31T04:34:02.757Z,12.50
2023-03-31T04:35:02.516Z,10.00
2023-03-31T04:36:02.529Z,13.60
2023-03-31T04:37:04.171Z,10.20
2023-03-31T04:38:02.483Z,13.60
2023-03-31T04:39:02.487Z,15.10
2023-03-31T04:40:02.471Z,14.60
2023-03-31T04:41:02.473Z,10.50
2023-03-31T04:42:02.471Z,11.10
2023-03-31T04:43:02.438Z,11.40
2023-03-31T04:44:02.421Z,11.30
2023-03-31T04:45:02.465Z,13.70
2023-03-31T04:46:02.508Z,15.30
2023-03-31T04:47:02.385Z,12.20
2023-03-31T04:48:02.443Z,14.60
2023-03-31T04:49:02.378Z,15.40
2023-03-31T04:50:02.402Z,13.40
2023-03-31T04:51:02.379Z,11.40
2023-03-31T04:52:02.359Z,13.70
2023-03-31T04:53:02.361Z,13.80
2023-03-31T04:54:02.348Z,16.50
2023-03-31T04:55:02.365Z,14.20
2023-03-31T04:56:03.449Z,16.80
2023-03-31T04:57:02.389Z,16.70
2023-03-31T04:58:02.321Z,15.80
2023-03-31T04:59:02.297Z,16.50
2023-03-31T05:00:02.342Z,13.90
2023-03-31T05:01:02.398Z,12.70
2023-03-31T05:02:02.395Z,14.50
2023-03-31T05:03:02.340Z,14.70
2023-03-31T05:04:02.266Z,15.70
2023-03-31T05:05:02.256Z,15.60
2023-03-31T05:06:02.296Z,19.60
2023-03-31T05:07:02.271Z,17.90
2023-03-31T05:08:02.323Z,14.40
2023-03-31T05:09:02.245Z,17.60
2023-03-31T05:10:02.216Z,18.10
2023-03-31T05:11:02.245Z,13.60
2023-03-31T05:12:02.216Z,18.70
2023-03-31T05:13:02.196Z,12.70
2023-03-31T05:14:02.229Z,15.90
2023-03-31T05:15:02.186Z,17.70
2023-03-31T05:16:02.234Z,14.00
2023-03-31T05:17:02.193Z,17.00
2023-03-31T05:18:02.204Z,12.20
2023-03-31T05:19:02.214Z,16.80
2023-03-31T05:20:02.185Z,14.90
2023-03-31T05:21:02.131Z,18.20
2023-03-31T05:22:02.130Z,20.50
2023-03-31T05:23:02.174Z,13.60
2023-03-31T05:24:02.170Z,16.20
2023-03-31T05:25:02.221Z,15.40
2023-03-31T05:26:02.165Z,16.90
2023-03-31T05:27:02.088Z,15.70
2023-03-31T05:28:03.383Z,13.20
2023-03-31T05:29:02.095Z,13.60
2023-03-31T05:30:02.129Z,15.90
2023-03-31T05:31:02.095Z,14.10
2023-03-31T05:32:02.141Z,12.60
2023-03-31T05:33:02.155Z,11.90
2023-03-31T05:34:02.079Z,15.50
2023-03-31T05:35:03.204Z,14.30
2023-03-31T05:36:02.045Z,13.20
2023-03-31T05:37:02.016Z,14.20
2023-03-31T05:38:02.040Z,14.90
2023-03-31T05:39:02.040Z,13.40
2023-03-31T05:40:02.481Z,13.80
2023-03-31T05:41:01.998Z,16.20
2023-03-31T05:42:02.781Z,13.70
2023-03-31T05:43:01.955Z,12.20
2023-03-31T05:44:03.733Z,12.40
2023-03-31T05:45:02.066Z,16.20
2023-03-31T05:46:02.014Z,12.60
2023-03-31T05:47:01.929Z,12.50
2023-03-31T05:48:01.982Z,10.80
2023-03-31T05:49:01.915Z,11.60
2023-03-31T05:50:01.933Z,12.20
2023-03-31T05:51:01.897Z,14.80
2023-03-31T05:52:01.917Z,13.50
2023-03-31T05:53:01.885Z,11.30
2023-03-31T05:54:02.814Z,11.70
2023-03-31T05:55:02.876Z,17.30
2023-03-31T05:56:02.436Z,12.30
2023-03-31T05:57:02.081Z,15.50
2023-03-31T05:58:01.865Z,18.70
2023-03-31T05:59:01.844Z,13.90
2023-03-31T06:00:01.845Z,12.60
2023-03-31T06:01:01.862Z,15.70
2023-03-31T06:02:01.908Z,18.30
2023-03-31T06:03:02.030Z,18.00
2023-03-31T06:04:01.935Z,24.10
2023-03-31T06:05:01.811Z,19.60
2023-03-31T06:06:01.809Z,18.30
2023-03-31T06:07:01.790Z,22.40
2023-03-31T06:08:01.788Z,22.10
2023-03-31T06:09:01.803Z,19.20
2023-03-31T06:10:01.776Z,17.90
2023-03-31T06:11:01.761Z,11.10
2023-03-31T06:12:01.781Z,12.60
2023-03-31T06:13:01.772Z,13.90
2023-03-31T06:14:01.739Z,13.20
2023-03-31T06:15:01.737Z,14.50
2023-03-31T06:16:01.740Z,11.80
2023-03-31T06:17:01.737Z,13.70
2023-03-31T06:18:01.747Z,13.20
2023-03-31T06:19:01.703Z,12.40
2023-03-31T06:20:04.271Z,12.10
2023-03-31T06:21:02.684Z,18.60
2023-03-31T06:22:01.726Z,13.40
2023-03-31T06:23:02.704Z,14.30
2023-03-31T06:24:01.693Z,14.30
2023-03-31T06:25:01.923Z,17.10
2023-03-31T06:26:01.688Z,14.10
2023-03-31T06:27:01.728Z,17.40
2023-03-31T06:28:01.669Z,15.90
2023-03-31T06:29:02.130Z,13.70
2023-03-31T06:30:01.739Z,14.20
2023-03-31T06:31:02.289Z,11.30
2023-03-31T06:32:01.639Z,12.50
2023-03-31T06:33:01.659Z,10.70
2023-03-31T06:34:01.618Z,10.60
2023-03-31T06:35:01.651Z,12.40
2023-03-31T06:36:01.625Z,11.30
2023-03-31T06:37:01.609Z,14.40
2023-03-31T06:38:01.575Z,11.90
2023-03-31T06:39:01.610Z,15.10
2023-03-31T06:40:01.539Z,12.00
2023-03-31T06:41:01.592Z,15.70
2023-03-31T06:42:01.536Z,15.80
2023-03-31T06:43:01.587Z,17.30
2023-03-31T06:44:01.527Z,19.20
2023-03-31T06:45:01.604Z,17.60
2023-03-31T06:46:01.587Z,18.40
2023-03-31T06:47:01.562Z,13.50
2023-03-31T06:48:01.512Z,18.80
2023-03-31T06:49:01.622Z,17.30
2023-03-31T06:50:01.627Z,16.00
2023-03-31T06:51:01.487Z,14.80
2023-03-31T06:52:01.470Z,14.50
2023-03-31T06:53:01.688Z,16.20
2023-03-31T06:54:01.482Z,9.20
2023-03-31T06:55:01.461Z,16.30
2023-03-31T06:56:01.422Z,15.10
2023-03-31T06:57:01.450Z,17.80
2023-03-31T06:58:01.425Z,18.10
2023-03-31T06:59:01.412Z,21.60
2023-03-31T07:00:01.411Z,18.40
2023-03-31T07:01:01.428Z,15.80
2023-03-31T07:02:01.549Z,20.90
2023-03-31T07:03:01.460Z,17.80
2023-03-31T07:04:01.365Z,19.70
2023-03-31T07:05:01.377Z,18.80
2023-03-31T07:06:01.387Z,23.60
2023-03-31T07:07:01.337Z,19.50
2023-03-31T07:08:01.347Z,17.80
2023-03-31T07:09:02.300Z,18.30
2023-03-31T07:10:01.332Z,18.20
2023-03-31T07:11:01.325Z,17.40
2023-03-31T07:12:01.336Z,15.80
2023-03-31T07:13:04.361Z,16.90
2023-03-31T07:14:01.307Z,18.00
2023-03-31T07:15:01.299Z,19.10
2023-03-31T07:16:01.378Z,14.90
2023-03-31T07:17:01.285Z,13.40
2023-03-31T07:18:01.347Z,19.10
2023-03-31T07:19:01.269Z,21.40
2023-03-31T07:20:01.230Z,21.20
2023-03-31T07:21:01.285Z,17.60
2023-03-31T07:22:01.242Z,17.70
2023-03-31T07:23:01.246Z,18.30
2023-03-31T07:24:01.300Z,18.50
2023-03-31T07:25:01.198Z,20.10
2023-03-31T07:26:01.229Z,15.20
2023-03-31T07:27:01.221Z,17.40
2023-03-31T07:28:01.160Z,18.10
2023-03-31T07:29:01.169Z,13.60
2023-03-31T07:30:36.890Z,16.20
2023-03-31T07:31:01.151Z,21.70
2023-03-31T07:32:01.213Z,16.20
2023-03-31T07:33:01.212Z,16.20
2023-03-31T07:34:01.107Z,16.70
2023-03-31T07:35:01.109Z,15.10
2023-03-31T07:36:11.568Z,17.50
2023-03-31T07:37:03.129Z,17.50
2023-03-31T07:38:01.090Z,17.00
2023-03-31T07:39:01.103Z,16.20
2023-03-31T07:40:01.138Z,24.70
2023-03-31T07:41:08.383Z,20.30
2023-03-31T07:42:03.071Z,22.00
2023-03-31T07:43:01.068Z,22.40
2023-03-31T07:44:01.085Z,20.20
2023-03-31T07:45:01.022Z,18.70
2023-03-31T07:46:01.085Z,14.60
2023-03-31T07:47:01.026Z,18.80
2023-03-31T07:48:01.073Z,13.90
2023-03-31T07:49:01.002Z,16.40
2023-03-31T07:50:01.959Z,14.80
2023-03-31T07:51:01.008Z,15.60
2023-03-31T07:52:00.985Z,20.50
2023-03-31T07:53:00.983Z,15.70
2023-03-31T07:54:01.033Z,16.40
2023-03-31T07:55:00.957Z,19.10
2023-03-31T07:56:00.959Z,17.00
2023-03-31T07:57:00.982Z,18.00
2023-03-31T07:58:00.948Z,23.80
2023-03-31T07:59:00.938Z,19.60
2023-03-31T08:00:00.945Z,17.40
2023-03-31T08:01:00.917Z,16.00
2023-03-31T08:02:01.028Z,18.30
2023-03-31T08:03:00.975Z,18.50
2023-03-31T08:04:01.022Z,13.10
2023-03-31T08:05:00.900Z,22.80
2023-03-31T08:06:00.955Z,19.10
2023-03-31T08:07:00.911Z,19.00
2023-03-31T08:08:00.940Z,16.20
2023-03-31T08:09:00.906Z,23.70
2023-03-31T08:10:00.905Z,32.90
2023-03-31T08:11:00.927Z,25.90
2023-03-31T08:12:00.864Z,21.60
2023-03-31T08:13:00.827Z,20.40
2023-03-31T08:14:00.824Z,23.80
2023-03-31T08:15:00.827Z,20.70
2023-03-31T08:16:00.892Z,14.20
2023-03-31T08:17:00.798Z,19.00
2023-03-31T08:18:00.819Z,17.30
2023-03-31T08:19:00.790Z,11.80
2023-03-31T08:20:06.105Z,13.90
2023-03-31T08:21:02.778Z,16.10
2023-03-31T08:22:00.804Z,14.10
2023-03-31T08:23:00.737Z,11.90
2023-03-31T08:24:00.813Z,8.50
2023-03-31T08:25:00.805Z,11.50
2023-03-31T08:26:00.734Z,10.30
2023-03-31T08:27:00.757Z,9.20
2023-03-31T08:28:00.725Z,9.00
2023-03-31T08:29:00.774Z,9.10
2023-03-31T08:30:01.730Z,9.50
2023-03-31T08:31:00.693Z,9.80
2023-03-31T08:32:00.724Z,14.40
2023-03-31T08:33:00.794Z,9.90
2023-03-31T08:34:00.691Z,13.30
2023-03-31T08:35:01.396Z,13.10
2023-03-31T08:36:00.681Z,18.80
2023-03-31T08:37:00.667Z,13.90
2023-03-31T08:38:00.724Z,14.70
2023-03-31T08:39:00.631Z,15.20
2023-03-31T08:40:00.676Z,13.10
2023-03-31T08:41:00.624Z,15.90
2023-03-31T08:42:00.619Z,27.50
2023-03-31T08:43:00.615Z,24.00
2023-03-31T08:44:01.314Z,17.70
2023-03-31T08:45:00.559Z,15.50
2023-03-31T08:46:00.629Z,14.50
2023-03-31T08:47:00.603Z,14.30
2023-03-31T08:48:00.572Z,13.00
2023-03-31T08:49:00.601Z,14.80
2023-03-31T08:50:00.551Z,12.80
2023-03-31T08:51:00.530Z,12.10
2023-03-31T08:52:00.534Z,13.40
2023-03-31T08:53:00.538Z,10.00
2023-03-31T08:54:00.516Z,12.10
2023-03-31T08:55:00.550Z,12.50
2023-03-31T08:56:00.544Z,11.60
2023-03-31T08:57:00.574Z,12.00
2023-03-31T08:58:00.490Z,14.60
2023-03-31T08:59:00.504Z,44.00
2023-03-31T09:00:00.488Z,10.70
2023-03-31T09:01:00.510Z,23.30
2023-03-31T09:02:00.519Z,20.10
2023-03-31T09:03:00.576Z,24.70
2023-03-31T09:04:00.652Z,13.10
2023-03-31T09:05:00.538Z,14.70
2023-03-31T09:06:12.686Z,11.90
2023-03-31T09:07:02.436Z,13.00
2023-03-31T09:08:00.424Z,9.60
2023-03-31T09:09:00.395Z,9.60
2023-03-31T09:10:00.461Z,10.40
2023-03-31T09:11:00.404Z,7.60
2023-03-31T09:12:01.375Z,8.10
2023-03-31T09:13:00.374Z,5.20
2023-03-31T09:14:00.398Z,8.50
2023-03-31T09:15:00.366Z,3.90
2023-03-31T09:16:00.401Z,4.20
2023-03-31T09:17:00.393Z,6.30
2023-03-31T09:18:00.347Z,5.70
2023-03-31T09:19:00.342Z,5.70
2023-03-31T09:20:00.306Z,7.00
2023-03-31T09:21:00.332Z,5.30
2023-03-31T09:22:00.319Z,4.80
2023-03-31T09:23:00.328Z,5.50
2023-03-31T09:24:00.338Z,7.20
2023-03-31T09:25:00.296Z,6.00
2023-03-31T09:26:00.844Z,6.00
2023-03-31T09:27:00.283Z,6.40
2023-03-31T09:28:00.262Z,7.50
2023-03-31T09:29:00.305Z,5.30
2023-03-31T09:30:00.286Z,6.50
2023-03-31T09:31:00.257Z,4.70
2023-03-31T09:32:00.321Z,7.00
2023-03-31T09:33:00.226Z,5.10
2023-03-31T09:34:00.262Z,5.40
2023-03-31T09:35:00.222Z,5.00
2023-03-31T09:36:00.262Z,6.20
2023-03-31T09:37:00.255Z,3.20
2023-03-31T09:38:01.265Z,7.60
2023-03-31T09:39:00.223Z,4.10
2023-03-31T09:40:00.237Z,4.40
2023-03-31T09:41:00.241Z,3.80
2023-03-31T09:42:00.176Z,5.60
2023-03-31T09:43:00.188Z,5.40
2023-03-31T09:44:00.181Z,3.80
2023-03-31T09:45:00.173Z,4.60
2023-03-31T09:46:08.553Z,4.00
2023-03-31T09:47:02.158Z,3.30
2023-03-31T09:48:00.245Z,4.40
2023-03-31T09:49:00.158Z,3.10
2023-03-31T09:50:00.264Z,4.50
2023-03-31T09:51:00.136Z,4.80
2023-03-31T09:52:00.084Z,3.00
2023-03-31T09:53:00.136Z,2.30
2023-03-31T09:54:01.078Z,1.80
2023-03-31T09:55:00.104Z,2.00
2023-03-31T09:56:00.137Z,2.70
2023-03-31T09:57:00.098Z,2.80
2023-03-31T09:58:00.131Z,3.10
2023-03-31T09:59:00.192Z,2.60
2023-03-31T09:59:59.999Z,1.80
2023-03-31T10:01:00.052Z,1.50
2023-03-31T10:02:00.197Z,1.50
2023-03-31T10:03:00.052Z,1.90
2023-03-31T10:04:00.002Z,3.20
2023-03-31T10:04:59.986Z,1.60
2023-03-31T10:05:59.985Z,1.80
2023-03-31T10:06:59.938Z,3.30
2023-03-31T10:07:59.923Z,2.30
2023-03-31T10:08:59.933Z,4.00
2023-03-31T10:09:59.984Z,2.70
2023-03-31T10:10:59.928Z,3.10
2023-03-31T10:11:59.925Z,2.00
2023-03-31T10:12:59.948Z,2.40
2023-03-31T10:13:59.979Z,3.10
2023-03-31T10:14:59.954Z,2.20
2023-03-31T10:15:59.909Z,2.60
2023-03-31T10:16:59.913Z,2.20
2023-03-31T10:17:59.900Z,1.70
2023-03-31T10:18:59.910Z,1.70
2023-03-31T10:19:59.874Z,1.80
2023-03-31T10:20:59.834Z,2.00
2023-03-31T10:21:59.829Z,1.40
2023-03-31T10:22:59.822Z,1.70
2023-03-31T10:23:59.815Z,1.20
2023-03-31T10:25:00.018Z,1.30
2023-03-31T10:25:59.833Z,2.30
2023-03-31T10:27:01.025Z,3.40
2023-03-31T10:27:59.777Z,4.10
2023-03-31T10:28:59.770Z,5.10
2023-03-31T10:29:59.839Z,2.30
2023-03-31T10:30:59.763Z,2.70
2023-03-31T10:31:59.797Z,2.50
2023-03-31T10:34:00.701Z,2.20
2023-03-31T10:34:59.720Z,1.60
2023-03-31T10:35:59.821Z,1.50
2023-03-31T10:36:59.730Z,3.10
2023-03-31T10:37:59.726Z,1.90
2023-03-31T10:38:59.703Z,3.40
2023-03-31T10:39:59.767Z,2.00
2023-03-31T10:40:59.835Z,2.20
2023-03-31T10:41:59.701Z,2.10
2023-03-31T10:42:59.683Z,2.10
2023-03-31T10:43:59.669Z,2.40
2023-03-31T10:44:59.676Z,3.00
2023-03-31T10:45:59.678Z,3.70
2023-03-31T10:46:59.734Z,2.80
2023-03-31T10:47:59.682Z,2.80
2023-03-31T10:48:59.609Z,2.70
2023-03-31T10:50:00.618Z,3.20
2023-03-31T10:50:59.601Z,4.60
2023-03-31T10:51:59.581Z,8.00
2023-03-31T10:52:59.637Z,6.00
2023-03-31T10:53:59.590Z,5.20
2023-03-31T10:54:59.659Z,7.00
2023-03-31T10:55:59.667Z,5.40
2023-03-31T10:56:59.672Z,4.20
2023-03-31T10:57:59.558Z,5.80
2023-03-31T10:59:05.642Z,4.20
2023-03-31T11:00:01.516Z,5.90
2023-03-31T11:00:59.522Z,4.70
2023-03-31T11:02:00.588Z,5.80
2023-03-31T11:03:01.169Z,6.30
2023-03-31T11:03:59.600Z,5.20
2023-03-31T11:04:59.529Z,5.60
2023-03-31T11:05:59.520Z,5.10
2023-03-31T11:06:59.474Z,6.50
2023-03-31T11:07:59.461Z,5.70
2023-03-31T11:08:59.457Z,6.60
2023-03-31T11:09:59.457Z,5.70
2023-03-31T11:10:59.450Z,6.10
2023-03-31T11:11:59.963Z,4.90
2023-03-31T11:13:00.000Z,5.80
2023-03-31T11:13:59.457Z,7.30
2023-03-31T11:14:59.452Z,3.60
2023-03-31T11:15:59.474Z,4.70
2023-03-31T11:16:59.441Z,3.60
2023-03-31T11:17:59.403Z,4.60
2023-03-31T11:18:59.399Z,7.30
2023-03-31T11:19:59.415Z,4.20
2023-03-31T11:20:59.411Z,5.30
2023-03-31T11:21:59.998Z,6.20
2023-03-31T11:22:59.373Z,6.30
2023-03-31T11:23:59.354Z,7.40
2023-03-31T11:24:59.360Z,5.60
2023-03-31T11:25:59.351Z,8.50
2023-03-31T11:26:59.336Z,4.00
2023-03-31T11:28:00.364Z,5.30
2023-03-31T11:28:59.359Z,5.50
2023-03-31T11:29:59.298Z,5.20
2023-03-31T11:30:59.318Z,7.10
2023-03-31T11:31:59.379Z,5.90
2023-03-31T11:32:59.299Z,7.20
2023-03-31T11:33:59.268Z,4.20
2023-03-31T11:34:59.281Z,5.20
2023-03-31T11:35:59.304Z,5.30
2023-03-31T11:36:59.319Z,5.70
2023-03-31T11:37:59.215Z,6.30
2023-03-31T11:38:59.240Z,8.10
2023-03-31T11:39:59.256Z,3.70
2023-03-31T11:40:59.216Z,5.00
2023-03-31T11:41:59.249Z,5.70
2023-03-31T11:42:59.243Z,6.10
2023-03-31T11:43:59.187Z,6.60
2023-03-31T11:44:59.182Z,4.40
2023-03-31T11:45:59.206Z,6.30
2023-03-31T11:46:59.282Z,2.20
2023-03-31T11:47:59.281Z,7.30
2023-03-31T11:48:59.202Z,5.20
2023-03-31T11:50:00.006Z,3.60
2023-03-31T11:50:59.149Z,3.20
2023-03-31T11:51:59.124Z,6.90
2023-03-31T11:52:59.145Z,5.00
2023-03-31T11:53:59.095Z,5.30
2023-03-31T11:55:01.464Z,4.40
2023-03-31T11:55:59.150Z,2.50
2023-03-31T11:56:59.094Z,6.40
2023-03-31T11:57:59.108Z,2.70
2023-03-31T11:58:59.092Z,5.10
2023-03-31T11:59:59.118Z,8.00
2023-03-31T12:01:00.666Z,4.50
2023-03-31T12:01:59.111Z,5.50
2023-03-31T12:02:59.098Z,4.50
2023-03-31T12:03:59.127Z,6.70
2023-03-31T12:04:59.032Z,3.90
2023-03-31T12:05:59.068Z,4.50
2023-03-31T12:07:00.673Z,3.60
2023-03-31T12:07:58.989Z,3.20
2023-03-31T12:08:58.964Z,2.80
2023-03-31T12:09:59.009Z,5.00
2023-03-31T12:10:59.033Z,2.50
2023-03-31T12:11:59.010Z,2.30
2023-03-31T12:13:01.146Z,4.00
2023-03-31T12:13:58.958Z,4.10
2023-03-31T12:14:59.012Z,2.90
2023-03-31T12:15:58.968Z,3.10
2023-03-31T12:16:58.977Z,3.80
2023-03-31T12:17:59.008Z,1.00
2023-03-31T12:18:58.903Z,2.30
2023-03-31T12:19:58.949Z,1.50
2023-03-31T12:20:58.923Z,2.10
2023-03-31T12:21:58.887Z,2.00
2023-03-31T12:22:58.925Z,3.10
2023-03-31T12:23:59.431Z,1.60
2023-03-31T12:24:58.842Z,4.60
2023-03-31T12:25:58.900Z,1.60
2023-03-31T12:26:58.841Z,2.50
2023-03-31T12:27:58.870Z,3.90
2023-03-31T12:28:58.799Z,5.70
2023-03-31T12:29:58.800Z,3.20
2023-03-31T12:30:58.871Z,4.40
2023-03-31T12:31:58.782Z,1.80
2023-03-31T12:32:58.834Z,2.70
2023-03-31T12:33:58.817Z,3.30
2023-03-31T12:34:58.776Z,1.10
2023-03-31T12:35:58.885Z,2.70
2023-03-31T12:36:58.769Z,1.40
2023-03-31T12:37:58.766Z,3.70
2023-03-31T12:38:58.755Z,2.10
2023-03-31T12:39:58.764Z,2.50
2023-03-31T12:40:58.759Z,3.80
2023-03-31T12:41:58.764Z,1.90
2023-03-31T12:42:58.761Z,3.30
2023-03-31T12:43:58.742Z,5.10
2023-03-31T12:44:58.686Z,6.20
2023-03-31T12:45:58.723Z,7.40
2023-03-31T12:46:58.819Z,5.40
2023-03-31T12:47:59.557Z,5.70
2023-03-31T12:48:58.762Z,5.30
2023-03-31T12:49:58.683Z,4.80
2023-03-31T12:50:58.728Z,5.80
2023-03-31T12:51:58.683Z,8.60
2023-03-31T12:52:58.684Z,8.20
2023-03-31T12:54:00.714Z,6.10
2023-03-31T12:55:00.551Z,6.40
2023-03-31T12:55:59.491Z,9.00
2023-03-31T12:56:58.693Z,7.30
2023-03-31T12:57:58.640Z,10.50
2023-03-31T12:58:58.635Z,6.40
2023-03-31T12:59:58.602Z,3.00
2023-03-31T13:00:58.653Z,2.80
2023-03-31T13:01:58.638Z,3.20
2023-03-31T13:02:58.652Z,3.60
2023-03-31T13:03:58.567Z,5.30
2023-03-31T13:04:58.619Z,4.90
2023-03-31T13:05:58.575Z,3.40
2023-03-31T13:06:58.554Z,3.60
2023-03-31T13:07:58.581Z,3.10
2023-03-31T13:08:58.569Z,4.60
2023-03-31T13:09:58.595Z,4.80
2023-03-31T13:10:58.607Z,2.40
2023-03-31T13:11:58.557Z,2.80
2023-03-31T13:12:58.555Z,4.40
2023-03-31T13:14:00.819Z,4.00
2023-03-31T13:14:59.500Z,3.20
2023-03-31T13:15:58.492Z,3.00
2023-03-31T13:16:58.476Z,5.30
2023-03-31T13:17:58.560Z,3.70
2023-03-31T13:18:58.495Z,2.70
2023-03-31T13:19:58.461Z,5.30
2023-03-31T13:20:58.447Z,2.60
2023-03-31T13:21:58.593Z,4.90
2023-03-31T13:22:58.486Z,3.50